Aérodrome :
LOGIN :

S'inscrire | Disclaimer

   EN    FR    IT 

 










Légende :    VFR   VFR Marginal   IFR   IFR Intensif   IFR Très Intensif
Visi : 
Plafond : 
>= 8 km
>= 3000ft
5 à 8 km
1000 à 3000 ft
1500m à 5 km
500 à 1000 ft
800 à 1500m
200 à 500 ft
< 800m
< 200 ft
Symboles :   Orages  Brouillard  Fortes neiges  Fortes précipitations  Vent > 20 kt
SIGMETs :   Divers  Orages  Givrage  Turbulence  Onde Orograph.  Cendres Volcan.






- Altitude de l'aérodrome : 74 ft
- Code IATA : EIN


EHEH - Eindhoven

DERNIER METAR :
  • 150755Z AUTO 24017KT 210V280 9999 NCD 08/03 Q0996 BLU 23016KT 9999 FEW020 BKN100 TEMPO 25018G28KT

METARs EXPIRÉS :
  • 150725Z AUTO 24017KT 200V280 9999 FEW031 08/04 Q0995 BLU 23016KT 9999 FEW020 BKN100 TEMPO 25018G28KT
  • 150655Z AUTO 23017KT 200V270 9999 FEW028 08/05 Q0994 BLU 23016KT 9999 FEW020 BKN100 TEMPO 25018G28KT
  • 150625Z AUTO 23015KT 190V260 9999 FEW110 08/05 Q0993 BLU 23016KT 9999 FEW020 BKN100 TEMPIO 25018G28KT
  • 150555Z AUTO 24016KT 200V270 9999 FEW019 BKN052 BKN058 08/06 Q0993 BLU
  • 150534Z AUTO 24017KT 200V270 9999 SCT053 BKN059 BKN066 08/06 Q0992 BLU
  • 150525Z AUTO 24017KT 200V290 9999 FEW049 SCT073 BKN079 08/06 Q0992 BLU
  • 150517Z AUTO 23016KT 200V260 9999 FEW015CB BKN071 OVC085 08/06 Q0991 BLU

TAF TAF EHEH
Valide du 15 à 06h jusqu'au 16 à 12h UTC


150524Z 1506/1612 24017KT 9999 SCT040
TEMPO 1506/1507 25020G35KT SCT012 BKN015CB OVC030
BECMG 1514/1517 21012KT
PROB30
TEMPO 1516/1518 FEW020CB BKN025
BECMG 1523/1602 18007KT



MET'MAP, la Météo Aéronautique d'un coup d'oeil ! - Copyright ORBIFLY Décembre 2007 - Disclaimer

ORBIFLY MET'MAP TEAM :

Programmation & Développement : Alexandra Zaïnal
Sur une idée originale de : Baudouin d'Aumeries
Assistance à la programmation : Marc-Olivier Méhu
Soutien technique & logistique : Manuel Goepfert

Contact : metmap@orbifly.com




SOURCES & CREDITS :

   NOAA